TRA6842 LGKO-EHRD
Flight info
| Callsign | TRA6842 |
|---|---|
| Flight time | N/A |
| Altitude | 38000 |
| Route | LARKI UL609 MES DCT DISOR DCT LONTA UL608 DOLEV DCT ROTAR DCT MOBDO DCT SOTOV DCT XEBIX DCT USUDO DCT LIRSU DCT SOGRI L608 BUB Y28 HELEN |
| Aircraft | B738/M-SDE2E3FGHIJ1RWXYZ/LB1 |
Departure
| Time | 2026-05-04 17:11 |
|---|---|
| Airport | Kos International Airport "Ippokratis" (LGKO) |
Arrival
| Time | N/A |
|---|---|
| Airport | Rotterdam The Hague Airport (EHRD) |
| Time | Latitude | Longitude | Altitude | Speed | Heading |
|---|---|---|---|---|---|
| 2026-05-04 16:22 | 36.80094 | 27.08963 | 420 ft | 0 kts | 88° |
| 2026-05-04 17:00 | 36.80116 | 27.08847 | 416 ft | 4 kts | 143° |
| 2026-05-04 17:00 | 36.80120 | 27.08843 | 418 ft | 0 kts | 148° |
| 2026-05-04 17:02 | 36.80114 | 27.08848 | 416 ft | 2 kts | 148° |
| 2026-05-04 17:03 | 36.80092 | 27.08866 | 420 ft | 5 kts | 148° |
| 2026-05-04 17:03 | 36.80054 | 27.08895 | 417 ft | 8 kts | 148° |
| 2026-05-04 17:03 | 36.79940 | 27.08980 | 423 ft | 11 kts | 161° |
| 2026-05-04 17:04 | 36.79814 | 27.08988 | 427 ft | 0 kts | 178° |
| 2026-05-04 17:07 | 36.79803 | 27.08989 | 427 ft | 3 kts | 178° |
| 2026-05-04 17:07 | 36.79794 | 27.08989 | 427 ft | 5 kts | 178° |
| 2026-05-04 17:07 | 36.79701 | 27.08993 | 418 ft | 11 kts | 178° |
| 2026-05-04 17:07 | 36.79616 | 27.09000 | 418 ft | 14 kts | 166° |
| 2026-05-04 17:08 | 36.79524 | 27.09066 | 421 ft | 17 kts | 148° |
| 2026-05-04 17:08 | 36.79275 | 27.09260 | 427 ft | 27 kts | 148° |
| 2026-05-04 17:08 | 36.79103 | 27.09395 | 426 ft | 32 kts | 148° |
| 2026-05-04 17:09 | 36.78932 | 27.09527 | 422 ft | 25 kts | 148° |
| 2026-05-04 17:09 | 36.78772 | 27.09652 | 427 ft | 29 kts | 148° |
| 2026-05-04 17:09 | 36.78669 | 27.09732 | 431 ft | 24 kts | 148° |
| 2026-05-04 17:10 | 36.78562 | 27.09808 | 427 ft | 3 kts | 27° |
| 2026-05-04 17:10 | 36.79497 | 27.09093 | 436 ft | 138 kts | 330° |
| 2026-05-04 17:11 | 36.80359 | 27.08435 | 1097 ft | 146 kts | 329° |
| 2026-05-04 17:11 | 36.81118 | 27.07575 | 2007 ft | 155 kts | 301° |
| 2026-05-04 17:11 | 36.81484 | 27.04480 | 2876 ft | 201 kts | 297° |
| 2026-05-04 17:12 | 36.82194 | 27.02914 | 3168 ft | 218 kts | 308° |
| 2026-05-04 17:12 | 36.83908 | 26.99510 | 4368 ft | 239 kts | 307° |
| 2026-05-04 17:13 | 36.86603 | 26.94101 | 6880 ft | 249 kts | 306° |
| 2026-05-04 17:14 | 36.89405 | 26.88484 | 9307 ft | 256 kts | 306° |
| 2026-05-04 17:14 | 36.90340 | 26.86610 | 10072 ft | 259 kts | 306° |
| 2026-05-04 17:14 | 36.92371 | 26.82547 | 10688 ft | 298 kts | 305° |
| 2026-05-04 17:15 | 36.93508 | 26.80269 | 10950 ft | 317 kts | 305° |
| 2026-05-04 17:15 | 36.95882 | 26.75504 | 12261 ft | 326 kts | 306° |